Time;durP1;ratioP1;P1;durP2;ratioP2;P2;SDS_P1;SDS_P2;PMS_P1;PMS_P2;Temp;Humidity;BMP_temperature;BMP_pressure;BME280_temperature;BME280_humidity;BME280_pressure;Samples;Min_cycle;Max_cycle;Signal;HPM_P1;HPM_P2
2022/10/29 04:00:27;;;;;;;13.97;2.73;;;14.50;96.30;;;;;;6096817;23;20362;31
2022/10/29 04:02:53;;;;;;;11.53;3.90;;;14.40;96.30;;;;;;4992417;28;20436;-79
2022/10/29 04:05:18;;;;;;;9.80;2.43;;;14.40;96.30;;;;;;4993766;28;20975;-78
2022/10/29 04:07:44;;;;;;;7.07;2.40;;;14.30;96.30;;;;;;4976352;28;20172;-79
2022/10/29 04:10:10;;;;;;;9.37;2.60;;;14.20;96.30;;;;;;4977338;28;20201;-79
2022/10/29 04:12:36;;;;;;;6.83;2.43;;;;;;;;;;5013736;28;20533;-79
2022/10/29 04:15:01;;;;;;;5.80;2.60;;;14.00;96.30;;;;;;4998813;28;20181;-78
2022/10/29 04:17:27;;;;;;;7.30;2.33;;;14.00;96.30;;;;;;5024005;28;20196;-77
2022/10/29 04:19:52;;;;;;;13.73;3.27;;;14.20;96.30;;;;;;5018186;28;20177;-77
2022/10/29 04:30:05;;;;;;;10.63;3.53;;;14.30;96.30;;;;;;5936893;23;20850;-77
2022/10/29 04:32:31;;;;;;;13.50;2.70;;;;;;;;;;5011978;28;20561;-77
2022/10/29 04:34:57;;;;;;;11.03;2.73;;;;;;;;;;5013588;28;20408;-77
2022/10/29 04:37:22;;;;;;;13.17;3.13;;;13.90;96.30;;;;;;5031276;28;20988;-77
2022/10/29 04:39:48;;;;;;;10.93;3.03;;;14.00;96.30;;;;;;5027942;28;20181;-77
2022/10/29 04:42:13;;;;;;;8.70;3.10;;;13.90;96.30;;;;;;4993789;28;20201;-78
2022/10/29 04:44:39;;;;;;;11.60;3.43;;;13.70;96.30;;;;;;4993678;28;20207;-77
2022/10/29 04:47:05;;;;;;;13.63;3.30;;;;;;;;;;4994481;28;20172;-77
2022/10/29 04:49:31;;;;;;;17.63;4.10;;;;;;;;;;5008349;28;20168;-77
2022/10/29 04:51:56;;;;;;;25.37;3.97;;;13.20;96.30;;;;;;5032709;28;20188;-77
2022/10/29 04:54:22;;;;;;;8.17;3.00;;;12.90;96.30;;;;;;5032880;28;20411;-78
2022/10/29 04:56:47;;;;;;;13.17;3.73;;;12.70;96.30;;;;;;5032212;28;20259;-77
2022/10/29 04:59:13;;;;;;;13.20;2.80;;;12.70;96.30;;;;;;5032565;28;20200;-77
2022/10/29 05:01:39;;;;;;;12.50;2.50;;;;;;;;;;5032677;28;20196;-78
2022/10/29 05:04:04;;;;;;;10.27;3.30;;;12.70;96.30;;;;;;5015193;28;20188;-79
2022/10/29 05:06:30;;;;;;;12.60;3.20;;;;;;;;;;5018981;28;20240;-77
2022/10/29 05:08:56;;;;;;;12.93;3.07;;;;;;;;;;4994324;28;20177;-77
2022/10/29 05:11:22;;;;;;;14.87;4.07;;;12.60;96.30;;;;;;4995209;28;20193;-77
2022/10/29 05:13:48;;;;;;;12.83;3.10;;;;;;;;;;4995216;28;20177;-77
2022/10/29 05:16:14;;;;;;;7.50;3.30;;;;;;;;;;4995155;28;20191;-78
2022/10/29 05:18:39;;;;;;;13.90;4.30;;;12.80;96.30;;;;;;4994683;28;20451;-78
2022/10/29 05:21:05;;;;;;;14.53;4.57;;;12.90;96.30;;;;;;5012670;28;20208;-77
2022/10/29 05:23:31;;;;;;;8.07;3.20;;;;;;;;;;5012772;28;20177;-77
2022/10/29 05:25:57;;;;;;;12.03;3.27;;;13.30;96.30;;;;;;5011884;28;20466;-78
2022/10/29 05:28:23;;;;;;;9.83;3.63;;;13.40;96.30;;;;;;5011771;28;20416;-79
2022/10/29 05:30:50;;;;;;;7.93;3.50;;;13.10;96.30;;;;;;5001315;28;20260;-79
2022/10/29 05:33:23;;;;;;;11.77;3.80;;;12.80;96.30;;;;;;4993544;28;20173;-79
2022/10/29 05:35:50;;;;;;;11.30;3.17;;;12.50;96.30;;;;;;4983975;28;20416;-78
2022/10/29 05:38:15;;;;;;;9.80;3.27;;;12.30;96.30;;;;;;5008661;28;20424;-78
2022/10/29 05:40:43;;;;;;;7.50;2.47;;;12.10;96.30;;;;;;5013338;28;20532;-78
2022/10/29 05:43:10;;;;;;;16.53;4.30;;;12.00;96.30;;;;;;5010124;28;20911;-80
2022/10/29 05:45:36;;;;;;;7.13;3.50;;;;;;;;;;5013085;28;20490;-78
2022/10/29 05:48:03;;;;;;;14.43;3.10;;;11.70;96.30;;;;;;5011692;28;20439;-78
2022/10/29 05:50:30;;;;;;;11.40;2.80;;;11.60;96.30;;;;;;4994861;28;20805;-77
2022/10/29 05:53:04;;;;;;;10.03;3.30;;;11.50;96.30;;;;;;4983899;28;20425;-78
2022/10/29 05:55:32;;;;;;;12.80;4.10;;;11.30;96.30;;;;;;4989795;28;20424;-78
2022/10/29 05:58:02;;;;;;;21.70;4.20;;;11.20;96.30;;;;;;4998659;28;20408;-78
2022/10/29 06:00:32;;;;;;;14.17;4.00;;;11.10;96.30;;;;;;5001200;28;20520;-78
2022/10/29 06:02:58;;;;;;;11.30;3.57;;;;;;;;;;5007656;28;20432;-76
2022/10/29 06:05:24;;;;;;;7.50;2.67;;;11.00;96.30;;;;;;5018708;28;20475;-76
2022/10/29 06:07:57;;;;;;;11.93;4.13;;;10.90;96.30;;;;;;5018210;28;20426;-77
2022/10/29 06:10:24;;;;;;;15.03;3.93;;;11.00;96.30;;;;;;5001023;28;20315;-76
2022/10/29 06:12:50;;;;;;;10.03;3.17;;;11.00;96.30;;;;;;5001114;28;20454;-76
2022/10/29 06:15:16;;;;;;;11.90;3.90;;;11.10;96.30;;;;;;5000870;28;20890;-76
2022/10/29 06:17:43;;;;;;;7.73;3.40;;;11.10;96.30;;;;;;5001619;28;20188;-77
2022/10/29 06:20:10;;;;;;;12.30;3.77;;;11.20;96.30;;;;;;5002830;28;20478;-76
2022/10/29 06:22:35;;;;;;;6.40;3.10;;;11.20;96.30;;;;;;5001050;28;20435;-76
2022/10/29 06:25:01;;;;;;;14.77;3.40;;;11.40;96.30;;;;;;4999381;28;20459;-77
2022/10/29 06:27:27;;;;;;;17.37;3.80;;;;;;;;;;4997775;28;20244;-76
2022/10/29 06:29:53;;;;;;;15.83;3.90;;;12.40;96.30;;;;;;4994560;28;20421;-78
2022/10/29 06:32:18;;;;;;;8.70;4.00;;;12.80;96.30;;;;;;4995664;28;20208;-76
2022/10/29 06:34:44;;;;;;;10.40;4.47;;;13.40;96.30;;;;;;5003500;28;20184;-76
2022/10/29 06:37:09;;;;;;;7.20;3.80;;;13.60;96.30;;;;;;5019128;28;20188;-78
2022/10/29 06:39:35;;;;;;;14.10;4.30;;;13.70;96.30;;;;;;5018564;28;20545;-76
2022/10/29 06:42:01;;;;;;;14.93;2.73;;;13.90;96.30;;;;;;5015271;28;20251;-75
2022/10/29 06:44:26;;;;;;;8.70;3.37;;;13.80;96.30;;;;;;5000985;28;20546;-76
2022/10/29 06:46:52;;;;;;;13.20;3.63;;;13.70;96.30;;;;;;5012933;28;20426;-76
2022/10/29 06:49:19;;;;;;;9.43;3.70;;;13.60;96.30;;;;;;5000671;28;20176;-75
2022/10/29 06:51:44;;;;;;;19.73;4.90;;;13.50;96.30;;;;;;5008887;28;20210;-75
2022/10/29 06:54:10;;;;;;;12.73;3.40;;;13.30;96.30;;;;;;5000843;28;20419;-76
2022/10/29 06:56:36;;;;;;;9.90;3.73;;;13.30;96.30;;;;;;4998835;28;20196;-77
2022/10/29 06:59:01;;;;;;;12.73;3.30;;;13.10;96.30;;;;;;4998315;28;20216;-74
2022/10/29 07:01:27;;;;;;;11.80;3.53;;;13.00;96.30;;;;;;4998776;28;20205;-75
2022/10/29 07:03:53;;;;;;;19.37;9.07;;;13.00;96.30;;;;;;5011911;28;20264;-75
2022/10/29 07:06:20;;;;;;;10.47;4.70;;;12.90;96.30;;;;;;4993088;28;20602;-75
2022/10/29 07:08:45;;;;;;;8.83;3.90;;;12.90;96.30;;;;;;5002399;28;20173;-75
2022/10/29 07:11:11;;;;;;;16.43;3.60;;;;;;;;;;4997849;28;20494;-75
2022/10/29 07:13:37;;;;;;;11.70;3.80;;;13.20;96.30;;;;;;4995321;28;20177;-75
2022/10/29 07:16:03;;;;;;;6.23;3.30;;;13.20;96.30;;;;;;4977824;28;20204;-75
2022/10/29 07:18:29;;;;;;;14.20;4.07;;;13.30;96.30;;;;;;5008386;28;20615;-75
2022/10/29 07:20:54;;;;;;;9.30;4.17;;;13.40;96.30;;;;;;5013887;28;20208;-75
2022/10/29 07:23:20;;;;;;;11.13;2.97;;;;;;;;;;4996866;28;20449;-76
2022/10/29 07:25:46;;;;;;;7.27;2.57;;;13.40;96.30;;;;;;5001946;28;20197;-75
2022/10/29 07:28:19;;;;;;;10.80;3.70;;;13.40;96.30;;;;;;4994485;28;20420;-77
2022/10/29 07:30:45;;;;;;;9.33;2.77;;;13.50;96.30;;;;;;4994876;28;20280;-76
2022/10/29 07:33:11;;;;;;;24.17;4.27;;;13.60;96.30;;;;;;4994616;28;20436;-75
2022/10/29 07:35:37;;;;;;;19.77;4.00;;;13.70;96.30;;;;;;4994743;28;20958;-76
2022/10/29 07:38:05;;;;;;;12.43;3.97;;;13.80;96.30;;;;;;4994247;28;20495;-76
2022/10/29 07:40:30;;;;;;;9.80;2.90;;;13.90;96.30;;;;;;4994570;28;20209;-75
2022/10/29 07:42:56;;;;;;;8.70;3.70;;;14.00;96.30;;;;;;4999139;28;20936;-77
2022/10/29 07:45:22;;;;;;;7.23;3.73;;;;;;;;;;5015840;28;20283;-75
2022/10/29 07:47:47;;;;;;;13.07;4.47;;;14.20;96.30;;;;;;5018167;28;20180;-75
2022/10/29 07:50:14;;;;;;;17.07;4.90;;;14.40;96.30;;;;;;4995988;28;20415;-75
2022/10/29 07:52:40;;;;;;;7.73;3.33;;;14.60;96.30;;;;;;5012170;28;20661;-77
2022/10/29 07:55:06;;;;;;;10.10;3.37;;;14.80;96.30;;;;;;5013837;28;20418;-76
2022/10/29 07:57:32;;;;;;;9.43;3.23;;;;;;;;;;5013301;28;20495;-76
2022/10/29 07:59:58;;;;;;;12.73;3.77;;;14.90;96.30;;;;;;5001599;28;20896;-77
2022/10/29 08:02:24;;;;;;;7.67;3.70;;;15.00;96.30;;;;;;5002048;28;20858;-77
2022/10/29 08:04:49;;;;;;;14.60;4.20;;;15.10;96.30;;;;;;5001955;28;20227;-77
2022/10/29 08:07:15;;;;;;;11.03;3.00;;;15.20;96.30;;;;;;5001227;28;20544;-78
2022/10/29 08:09:40;;;;;;;9.40;3.50;;;15.30;96.30;;;;;;5005689;28;20177;-77
2022/10/29 08:12:10;;;;;;;8.67;3.00;;;15.50;96.30;;;;;;5010261;28;20189;-77
2022/10/29 08:14:35;;;;;;;11.80;3.10;;;15.60;96.30;;;;;;4984132;28;20178;-76
2022/10/29 08:17:01;;;;;;;12.30;4.67;;;;;;;;;;4991450;28;20445;-77
2022/10/29 08:19:28;;;;;;;9.70;3.80;;;15.90;96.30;;;;;;4991895;28;20185;-77
2022/10/29 08:21:54;;;;;;;9.77;4.73;;;15.90;96.30;;;;;;5004866;28;20467;-77
2022/10/29 08:24:20;;;;;;;9.13;3.20;;;;;;;;;;4998277;28;20412;-77
2022/10/29 08:26:46;;;;;;;13.43;4.00;;;16.00;96.30;;;;;;5002633;28;20427;-77
2022/10/29 08:29:12;;;;;;;15.13;3.60;;;;;;;;;;5012174;28;20195;-79
2022/10/29 08:31:37;;;;;;;12.43;3.23;;;16.10;96.30;;;;;;4984782;28;20209;-78
2022/10/29 08:34:03;;;;;;;5.93;3.33;;;16.10;96.30;;;;;;4985439;28;20177;-79
2022/10/29 08:36:28;;;;;;;10.00;3.60;;;16.20;96.30;;;;;;4982929;28;20583;-78
2022/10/29 08:38:54;;;;;;;12.33;3.60;;;;;;;;;;5019873;28;20222;-78
2022/10/29 08:41:46;;;;;;;17.63;4.50;;;16.40;96.30;;;;;;5009889;28;20208;-79
2022/10/29 08:44:45;;;;;;;7.47;4.13;;;16.70;96.30;;;;;;5005006;28;20253;-80
2022/10/29 08:47:41;;;;;;;13.43;4.13;;;16.90;96.30;;;;;;5008619;28;20907;-79
2022/10/29 08:50:28;;;;;;;13.73;3.40;;;17.20;96.30;;;;;;5015076;28;20470;-79
2022/10/29 08:52:54;;;;;;;17.67;3.93;;;17.30;96.30;;;;;;5014473;28;20812;-79
2022/10/29 08:55:24;;;;;;;16.30;3.83;;;17.50;96.30;;;;;;4992701;28;20551;-79
2022/10/29 08:57:55;;;;;;;16.00;3.57;;;17.60;96.30;;;;;;5002317;28;20415;-79
2022/10/29 09:00:25;;;;;;;11.37;4.30;;;17.70;96.30;;;;;;4983486;28;20421;-78
2022/10/29 09:02:59;;;;;;;14.13;4.17;;;17.80;96.30;;;;;;5004775;28;20419;-79
2022/10/29 09:05:46;;;;;;;9.33;4.50;;;18.00;96.30;;;;;;5006763;28;20824;-78
2022/10/29 09:08:43;;;;;;;13.90;4.40;;;18.10;96.30;;;;;;4998522;28;20429;-79
2022/10/29 09:11:46;;;;;;;12.70;4.10;;;18.40;96.30;;;;;;5006639;28;20432;-78
2022/10/29 09:14:32;;;;;;;20.47;4.40;;;18.60;96.30;;;;;;4994115;28;20419;-78
2022/10/29 09:17:19;;;;;;;10.50;4.33;;;18.80;96.30;;;;;;4993499;28;20897;-78
2022/10/29 09:19:51;;;;;;;6.57;3.03;;;18.90;96.30;;;;;;4995905;28;20405;-78
2022/10/29 09:22:21;;;;;;;18.57;4.67;;;18.90;96.30;;;;;;4998908;28;20519;-78
2022/10/29 09:24:53;;;;;;;10.87;3.90;;;19.20;96.30;;;;;;4979127;28;20467;-78
2022/10/29 09:27:29;;;;;;;16.60;4.53;;;19.30;96.30;;;;;;4994516;28;20409;-79
2022/10/29 09:30:16;;;;;;;17.20;4.10;;;19.60;96.30;;;;;;4998395;28;20401;-81
2022/10/29 09:33:03;;;;;;;14.83;4.00;;;19.70;96.30;;;;;;5001985;28;20433;-81
2022/10/29 09:35:35;;;;;;;11.30;3.30;;;19.60;96.30;;;;;;5000713;28;20416;-79
2022/10/29 09:38:13;;;;;;;9.70;3.13;;;19.60;96.30;;;;;;4994737;28;20444;-80
2022/10/29 09:40:42;;;;;;;17.00;3.97;;;19.60;96.30;;;;;;5012558;28;20431;-79
2022/10/29 09:43:15;;;;;;;12.73;3.67;;;19.40;96.30;;;;;;4995338;28;20419;-79
2022/10/29 09:46:11;;;;;;;13.87;3.87;;;19.30;96.30;;;;;;4995433;28;20502;-81
2022/10/29 09:48:43;;;;;;;14.17;3.87;;;19.20;96.30;;;;;;4994862;28;20438;-79
2022/10/29 09:51:30;;;;;;;10.77;3.80;;;19.00;96.30;;;;;;5012022;28;20435;-80
2022/10/29 09:53:55;;;;;;;9.90;3.20;;;19.00;96.30;;;;;;5012102;28;20400;-78
2022/10/29 09:56:21;;;;;;;15.60;4.63;;;19.20;96.30;;;;;;4994704;28;20419;-78
2022/10/29 09:58:54;;;;;;;16.20;3.53;;;19.40;96.30;;;;;;4994003;28;20188;-81
2022/10/29 10:01:19;;;;;;;23.17;3.43;;;20.00;96.30;;;;;;5012358;28;20189;-79
2022/10/29 10:03:51;;;;;;;12.07;3.73;;;20.90;96.30;;;;;;5012225;28;20411;-79
2022/10/29 10:06:17;;;;;;;17.90;4.70;;;21.90;96.30;;;;;;5012208;28;20220;-82
2022/10/29 10:08:57;;;;;;;14.10;3.03;;;22.60;96.30;;;;;;5009933;28;20467;-79
2022/10/29 10:11:24;;;;;;;8.77;3.43;;;23.30;96.30;;;;;;4992510;28;20197;-78
2022/10/29 10:13:54;;;;;;;12.13;3.70;;;23.80;96.30;;;;;;4975117;28;20444;-81
2022/10/29 10:16:28;;;;;;;13.67;4.77;;;24.50;96.30;;;;;;4999480;28;20420;-81
2022/10/29 10:18:54;;;;;;;11.90;3.10;;;24.90;96.30;;;;;;4997099;28;20413;-81
2022/10/29 10:21:28;;;;;;;9.90;3.40;;;25.00;96.30;;;;;;4993655;28;20444;-78
2022/10/29 10:23:56;;;;;;;13.00;3.30;;;25.40;96.30;;;;;;4973713;28;20177;-81
2022/10/29 10:26:33;;;;;;;13.20;2.87;;;25.50;96.20;;;;;;4992153;28;20841;-78
2022/10/29 10:29:26;;;;;;;12.57;3.07;;;25.40;96.10;;;;;;4991904;28;20412;-78
2022/10/29 10:31:54;;;;;;;19.13;3.40;;;25.40;96.30;;;;;;4991959;28;20461;-78
2022/10/29 10:34:25;;;;;;;9.90;3.40;;;25.80;96.30;;;;;;5010134;28;20542;-80
2022/10/29 10:37:04;;;;;;;13.43;3.17;;;26.00;96.30;;;;;;5017527;28;20411;-80
2022/10/29 10:39:33;;;;;;;8.70;3.57;;;25.20;96.10;;;;;;5000327;28;20827;-77
2022/10/29 10:42:02;;;;;;;10.50;3.43;;;25.20;96.30;;;;;;5016433;28;20439;-77
2022/10/29 10:44:28;;;;;;;10.90;4.13;;;25.10;96.30;;;;;;5017313;28;20415;-77
2022/10/29 10:46:55;;;;;;;18.60;3.77;;;25.40;96.30;;;;;;5035092;28;20417;-77
2022/10/29 10:49:36;;;;;;;16.37;4.30;;;25.40;96.30;;;;;;5011129;28;20423;-77
2022/10/29 10:52:26;;;;;;;10.77;3.43;;;25.50;96.30;;;;;;5028631;28;20850;-77
2022/10/29 10:54:57;;;;;;;14.30;3.80;;;25.60;96.30;;;;;;5034978;28;20498;-77
2022/10/29 10:57:35;;;;;;;10.10;3.50;;;25.70;95.10;;;;;;5024246;28;20797;-80
2022/10/29 11:00:05;;;;;;;11.30;3.93;;;25.40;96.30;;;;;;5004045;28;20416;-80
2022/10/29 11:02:49;;;;;;;17.60;3.33;;;25.30;96.30;;;;;;5005061;28;20468;-80
2022/10/29 11:05:19;;;;;;;16.23;4.17;;;25.50;96.30;;;;;;5003868;28;21167;-78
2022/10/29 11:07:51;;;;;;;12.70;4.00;;;25.60;95.30;;;;;;5009467;28;20420;-80
2022/10/29 11:10:19;;;;;;;14.10;5.20;;;25.50;94.40;;;;;;5008208;28;20431;-80
2022/10/29 11:12:53;;;;;;;14.87;3.43;;;25.20;94.70;;;;;;5010448;28;20516;-81
2022/10/29 11:15:50;;;;;;;15.27;3.43;;;25.00;96.30;;;;;;5017583;28;20498;-80
2022/10/29 11:18:34;;;;;;;23.10;4.43;;;24.90;95.10;;;;;;4994664;28;20496;-81
2022/10/29 11:21:23;;;;;;;6.50;2.80;;;25.00;96.30;;;;;;5011621;28;21024;-81
2022/10/29 11:24:02;;;;;;;11.07;3.33;;;24.80;96.30;;;;;;4992011;28;20416;-80
2022/10/29 11:26:53;;;;;;;26.57;3.63;;;24.60;96.30;;;;;;4995152;28;20555;-79
2022/10/29 11:29:52;;;;;;;13.90;3.70;;;24.90;96.30;;;;;;4988147;28;20985;-78
2022/10/29 11:32:49;;;;;;;9.47;3.33;;;25.00;96.30;;;;;;4995074;28;20440;-79
2022/10/29 11:35:40;;;;;;;21.03;4.20;;;25.00;96.30;;;;;;5004778;28;20436;-79
2022/10/29 11:38:17;;;;;;;20.83;3.33;;;25.20;96.30;;;;;;5002682;28;20526;-78
2022/10/29 11:41:11;;;;;;;11.70;3.80;;;25.20;96.30;;;;;;5011730;28;20431;-78
2022/10/29 11:43:36;;;;;;;13.50;3.80;;;25.40;96.30;;;;;;5007104;28;20511;-80
2022/10/29 11:46:38;;;;;;;21.33;3.40;;;25.20;96.30;;;;;;4981690;28;21022;-80
2022/10/29 11:49:30;;;;;;;8.60;3.30;;;25.30;96.30;;;;;;5004769;28;20192;-81
2022/10/29 11:52:08;;;;;;;17.20;4.13;;;25.30;96.30;;;;;;5005312;28;21000;-81
2022/10/29 11:55:03;;;;;;;14.33;4.10;;;25.30;96.30;;;;;;5004293;28;20918;-80
2022/10/29 11:57:37;;;;;;;9.63;2.93;;;25.00;96.30;;;;;;4987688;28;20427;-80
2022/10/29 12:00:12;;;;;;;13.63;3.20;;;25.00;96.30;;;;;;4990253;28;20567;-79
2022/10/29 12:03:05;;;;;;;21.27;3.70;;;24.70;96.30;;;;;;5006533;28;20488;-80
2022/10/29 12:06:05;;;;;;;17.33;3.40;;;24.40;96.30;;;;;;5006502;28;20959;-79
2022/10/29 12:08:57;;;;;;;10.30;4.37;;;23.80;96.30;;;;;;4997998;28;20441;-80
2022/10/29 12:12:01;;;;;;;10.30;3.53;;;23.70;96.30;;;;;;5017872;28;20439;-79
2022/10/29 12:14:46;;;;;;;15.17;3.80;;;23.50;96.30;;;;;;5012691;28;20416;-80
2022/10/29 12:17:34;;;;;;;17.87;3.47;;;23.40;96.30;;;;;;5008012;28;20481;-79
2022/10/29 12:20:31;;;;;;;20.87;5.13;;;23.50;96.30;;;;;;5011970;28;20404;-81
2022/10/29 12:23:10;;;;;;;8.97;3.60;;;23.50;96.30;;;;;;4981302;28;20439;-79
2022/10/29 12:25:59;;;;;;;20.00;3.90;;;23.80;96.30;;;;;;4999740;28;20558;-80
2022/10/29 12:28:59;;;;;;;9.83;3.57;;;24.30;96.30;;;;;;5015378;28;20419;-78
2022/10/29 12:31:44;;;;;;;12.43;4.07;;;24.50;96.30;;;;;;5021882;28;20690;-78
2022/10/29 12:34:29;;;;;;;10.97;4.10;;;24.50;96.30;;;;;;5012992;28;20426;-78
2022/10/29 12:37:47;;;;;;;14.23;3.77;;;24.60;96.30;;;;;;5018208;28;20427;-78
2022/10/29 12:40:29;;;;;;;17.97;5.03;;;24.00;96.30;;;;;;4944891;28;20424;-78
2022/10/29 12:42:59;;;;;;;14.57;3.57;;;24.10;96.30;;;;;;4996893;28;20412;-78
2022/10/29 12:45:41;;;;;;;10.90;3.40;;;24.10;96.30;;;;;;5003763;28;20467;-80
2022/10/29 12:48:22;;;;;;;13.63;3.90;;;23.60;96.30;;;;;;5004737;28;20890;-79
2022/10/29 12:51:12;;;;;;;14.03;3.57;;;23.50;96.30;;;;;;5004891;28;20966;-79
2022/10/29 12:53:50;;;;;;;19.63;3.77;;;23.50;96.30;;;;;;5006080;28;20416;-79
2022/10/29 12:56:16;;;;;;;11.97;4.30;;;23.40;96.30;;;;;;5003688;28;20469;-79
2022/10/29 12:58:48;;;;;;;14.83;3.33;;;23.20;96.30;;;;;;5015555;28;20495;-79
2022/10/29 13:01:34;;;;;;;11.13;2.90;;;23.10;96.30;;;;;;4996613;28;20437;-79
2022/10/29 13:04:03;;;;;;;14.77;4.00;;;22.80;96.30;;;;;;4976838;28;20943;-79
2022/10/29 13:06:40;;;;;;;11.13;3.00;;;22.40;96.30;;;;;;5015806;28;21081;-79
2022/10/29 13:09:15;;;;;;;9.83;3.63;;;22.30;96.30;;;;;;4980028;28;20416;-79
2022/10/29 13:12:03;;;;;;;9.40;3.90;;;22.00;96.30;;;;;;4995717;28;20428;-80
2022/10/29 13:14:37;;;;;;;12.10;3.77;;;22.20;96.30;;;;;;5003871;28;20499;-76
2022/10/29 13:17:05;;;;;;;14.43;3.40;;;22.10;96.30;;;;;;4992752;28;21329;-76
2022/10/29 13:19:58;;;;;;;23.20;3.50;;;22.10;96.30;;;;;;4993162;28;20416;-75
2022/10/29 13:22:45;;;;;;;9.83;3.37;;;21.90;96.30;;;;;;4993099;28;20507;-77
2022/10/29 13:25:32;;;;;;;11.40;2.87;;;21.80;96.30;;;;;;4992882;28;20452;-75
2022/10/29 13:27:57;;;;;;;15.03;3.63;;;21.70;96.30;;;;;;4992542;28;20405;-76
2022/10/29 13:30:26;;;;;;;12.23;3.87;;;21.80;96.30;;;;;;4992532;28;20975;-76
2022/10/29 13:32:53;;;;;;;6.23;3.33;;;21.80;96.30;;;;;;4992921;28;20170;-76
2022/10/29 13:35:21;;;;;;;15.77;3.80;;;21.80;96.30;;;;;;4992630;28;20423;-77
2022/10/29 13:38:14;;;;;;;6.93;2.87;;;21.80;96.30;;;;;;4992158;28;20982;-76
2022/10/29 13:41:04;;;;;;;12.03;3.03;;;21.80;96.30;;;;;;4972916;28;20440;-76
2022/10/29 13:43:31;;;;;;;7.27;3.50;;;21.80;96.30;;;;;;4991172;28;20435;-76
2022/10/29 13:46:25;;;;;;;11.83;3.40;;;21.80;96.30;;;;;;4991851;28;20469;-76
2022/10/29 13:48:53;;;;;;;10.60;3.30;;;21.80;96.30;;;;;;5005078;28;20439;-76
2022/10/29 13:51:37;;;;;;;11.03;2.80;;;21.80;96.30;;;;;;5009678;28;20431;-76
2022/10/29 13:54:15;;;;;;;8.70;3.57;;;21.70;96.30;;;;;;5009765;28;20408;-78
2022/10/29 13:57:06;;;;;;;21.53;4.10;;;21.60;96.30;;;;;;5009637;28;20412;-77
2022/10/29 13:59:59;;;;;;;14.53;3.90;;;21.50;96.30;;;;;;5009718;28;20506;-76
2022/10/29 14:02:24;;;;;;;10.43;2.93;;;21.50;96.30;;;;;;5009778;28;21268;-76
2022/10/29 14:04:55;;;;;;;13.77;4.10;;;21.50;96.30;;;;;;5010012;28;20542;-76
2022/10/29 14:07:29;;;;;;;11.70;3.80;;;21.40;96.30;;;;;;5007548;28;20172;-75
2022/10/29 14:09:59;;;;;;;10.40;3.07;;;21.30;96.30;;;;;;5009842;28;20404;-76
2022/10/29 14:12:29;;;;;;;13.67;3.37;;;21.10;96.30;;;;;;5009334;28;20481;-75
2022/10/29 14:15:07;;;;;;;10.80;2.93;;;20.90;96.30;;;;;;5011386;28;20416;-75
2022/10/29 14:17:33;;;;;;;10.03;3.77;;;;;;;;;;5013199;28;20459;-77
2022/10/29 14:19:58;;;;;;;16.93;3.43;;;20.60;96.30;;;;;;5014011;28;20473;-77
2022/10/29 14:22:32;;;;;;;11.13;3.53;;;20.50;96.30;;;;;;5014121;28;20200;-77
2022/10/29 14:24:58;;;;;;;11.03;2.90;;;20.50;96.30;;;;;;5014162;28;20200;-77
2022/10/29 14:27:24;;;;;;;13.87;3.10;;;20.40;96.30;;;;;;5012882;28;20407;-77
2022/10/29 14:29:49;;;;;;;14.73;3.50;;;20.40;96.30;;;;;;4996072;28;20419;-77
2022/10/29 14:32:18;;;;;;;18.27;3.47;;;20.30;96.30;;;;;;4996339;28;20219;-77
2022/10/29 14:34:46;;;;;;;8.57;3.27;;;20.20;96.30;;;;;;5013314;28;20180;-77
2022/10/29 14:37:27;;;;;;;14.80;3.17;;;20.10;96.30;;;;;;5012798;28;20451;-77
2022/10/29 14:39:56;;;;;;;10.27;3.13;;;19.90;96.30;;;;;;5013499;28;20974;-77
2022/10/29 14:42:38;;;;;;;12.10;3.80;;;19.80;96.30;;;;;;5013517;28;20463;-77
2022/10/29 14:45:27;;;;;;;10.27;3.17;;;19.70;96.30;;;;;;5013294;28;20813;-77
2022/10/29 14:47:59;;;;;;;10.43;3.07;;;19.60;96.30;;;;;;5012289;28;20966;-77
2022/10/29 14:50:26;;;;;;;10.90;3.10;;;19.50;96.30;;;;;;5013898;28;20514;-77
2022/10/29 14:53:02;;;;;;;8.97;3.83;;;19.40;96.30;;;;;;4996161;28;20404;-77
2022/10/29 14:55:33;;;;;;;16.17;3.83;;;19.30;96.30;;;;;;5013193;28;20495;-77
2022/10/29 14:58:10;;;;;;;15.00;4.57;;;19.30;96.30;;;;;;5013049;28;20412;-77
2022/10/29 15:00:38;;;;;;;13.03;3.07;;;19.20;96.30;;;;;;5012911;28;20439;-77
2022/10/29 15:03:06;;;;;;;8.50;3.10;;;19.00;96.30;;;;;;4993562;28;20947;-77
2022/10/29 15:05:34;;;;;;;12.63;3.13;;;18.80;96.30;;;;;;4993336;28;20472;-77
2022/10/29 15:08:30;;;;;;;17.77;3.83;;;18.60;96.30;;;;;;4991360;28;20405;-77
2022/10/29 15:10:56;;;;;;;15.83;3.50;;;18.30;96.30;;;;;;4992070;28;20629;-77
2022/10/29 15:13:28;;;;;;;9.40;3.50;;;18.20;96.30;;;;;;4994018;28;20451;-77
2022/10/29 15:16:02;;;;;;;14.43;4.13;;;18.00;96.30;;;;;;4976628;28;20541;-77
2022/10/29 15:18:29;;;;;;;11.07;4.43;;;17.90;96.30;;;;;;4975827;28;20459;-77
2022/10/29 15:20:55;;;;;;;26.60;4.57;;;17.80;96.30;;;;;;5000086;28;20471;-77
2022/10/29 15:23:32;;;;;;;11.07;4.23;;;17.80;96.30;;;;;;5012466;28;20420;-77
2022/10/29 15:26:08;;;;;;;17.30;3.20;;;17.70;96.30;;;;;;4984145;28;20460;-77
2022/10/29 15:28:45;;;;;;;14.60;3.63;;;17.60;96.30;;;;;;4993088;28;20404;-77
2022/10/29 15:31:44;;;;;;;23.87;4.23;;;17.50;96.30;;;;;;4993641;28;20860;-77
2022/10/29 15:34:27;;;;;;;14.60;4.00;;;17.40;96.30;;;;;;4994877;28;20500;-75
2022/10/29 15:36:58;;;;;;;14.27;5.30;;;17.30;96.30;;;;;;4992452;28;20413;-77
2022/10/29 15:39:26;;;;;;;10.20;4.87;;;17.20;96.30;;;;;;4993256;28;21042;-75
2022/10/29 15:41:55;;;;;;;20.33;9.73;;;17.20;96.30;;;;;;4992977;28;20815;-75
2022/10/29 15:44:33;;;;;;;12.67;7.00;;;17.20;96.30;;;;;;4992951;28;21072;-77
2022/10/29 15:47:02;;;;;;;18.50;7.20;;;17.10;96.30;;;;;;4991870;28;20421;-75
2022/10/29 15:49:28;;;;;;;18.43;6.93;;;17.10;96.30;;;;;;4992768;28;20412;-75
2022/10/29 15:51:58;;;;;;;10.20;6.70;;;17.10;96.30;;;;;;4992823;28;20539;-75
2022/10/29 15:54:24;;;;;;;13.10;9.03;;;17.10;96.30;;;;;;4992792;28;20405;-75
2022/10/29 15:56:50;;;;;;;17.47;4.80;;;17.10;96.30;;;;;;4992217;28;20416;-76
2022/10/29 15:59:21;;;;;;;18.03;6.60;;;17.10;96.30;;;;;;5008824;28;20183;-77
2022/10/29 16:01:46;;;;;;;12.50;7.10;;;17.10;96.30;;;;;;4976567;28;20575;-76
2022/10/29 16:04:12;;;;;;;8.83;4.33;;;17.00;96.30;;;;;;5013482;28;20571;-76
2022/10/29 16:06:38;;;;;;;17.90;4.30;;;;;;;;;;4991167;28;20233;-76
2022/10/29 16:09:03;;;;;;;10.40;5.43;;;17.00;96.30;;;;;;5002499;28;20188;-76
2022/10/29 16:11:29;;;;;;;14.57;4.50;;;17.00;96.30;;;;;;5000367;28;20201;-76
2022/10/29 16:13:55;;;;;;;15.93;5.20;;;17.00;96.30;;;;;;5011690;28;20187;-76
2022/10/29 16:16:22;;;;;;;12.77;4.43;;;17.00;96.30;;;;;;4996992;28;20193;-76
2022/10/29 16:18:48;;;;;;;10.97;4.37;;;17.00;96.30;;;;;;5013900;28;20231;-76
2022/10/29 16:31:37;;;;;;;15.63;4.83;;;;;;;;;;5228700;23;20487;-76
2022/10/29 16:34:05;;;;;;;16.90;6.40;;;17.30;96.30;;;;;;4979246;28;20457;-75
2022/10/29 16:36:30;;;;;;;18.30;5.07;;;17.20;96.30;;;;;;4973510;28;20456;-75
2022/10/29 16:38:56;;;;;;;21.60;5.40;;;17.20;96.30;;;;;;4979514;28;20491;-75
2022/10/29 16:41:21;;;;;;;29.77;6.40;;;17.10;96.30;;;;;;4993013;28;20224;-75
2022/10/29 16:43:47;;;;;;;13.50;4.93;;;17.00;96.30;;;;;;4992215;28;20221;-76
2022/10/29 16:46:13;;;;;;;14.33;4.97;;;16.90;96.30;;;;;;4992082;28;20208;-76
2022/10/29 16:48:39;;;;;;;14.07;5.57;;;16.80;96.30;;;;;;4991105;28;20182;-76
2022/10/29 16:51:05;;;;;;;19.63;6.63;;;16.60;96.30;;;;;;4991470;28;20481;-76
2022/10/29 16:53:31;;;;;;;18.30;6.40;;;16.30;96.30;;;;;;4991917;28;20409;-76
2022/10/29 16:55:57;;;;;;;13.40;5.07;;;16.20;96.30;;;;;;4991380;28;20478;-77
2022/10/29 16:58:23;;;;;;;14.13;4.07;;;16.30;96.30;;;;;;4982486;28;20634;-76
2022/10/29 17:00:48;;;;;;;9.40;3.60;;;16.40;96.30;;;;;;4986733;28;20193;-77
2022/10/29 17:03:16;;;;;;;17.57;4.47;;;16.50;96.30;;;;;;4979869;28;20218;-77
2022/10/29 17:05:43;;;;;;;19.37;6.87;;;16.50;96.30;;;;;;4975129;28;20208;-76
2022/10/29 17:08:09;;;;;;;11.90;3.80;;;16.60;96.30;;;;;;4989997;28;20413;-78
2022/10/29 17:10:36;;;;;;;12.07;3.63;;;16.70;96.30;;;;;;4991711;28;20943;-76
2022/10/29 17:13:02;;;;;;;435.70;339.43;;;17.00;96.30;;;;;;4992912;28;20177;-77
2022/10/29 17:15:28;;;;;;;89.20;61.53;;;;;;;;;;4978404;28;20582;-77
2022/10/29 17:17:53;;;;;;;25.27;13.53;;;16.90;96.30;;;;;;4986122;28;20955;-77
2022/10/29 17:20:19;;;;;;;13.00;4.70;;;17.00;96.30;;;;;;4987408;28;20476;-76
2022/10/29 17:22:45;;;;;;;14.47;3.43;;;17.00;96.30;;;;;;4981551;28;20645;-76
2022/10/29 17:25:10;;;;;;;24.30;5.50;;;17.00;96.30;;;;;;4979752;28;20635;-78
2022/10/29 17:27:42;;;;;;;11.17;3.20;;;17.00;96.30;;;;;;4980659;28;20170;-77
2022/10/29 17:30:09;;;;;;;11.70;3.73;;;17.10;96.30;;;;;;4981941;28;20302;-77
2022/10/29 17:32:34;;;;;;;8.60;3.47;;;17.00;96.30;;;;;;4983629;28;20444;-77